createdAt,value
2023-05-10T00:02:19.458Z,63.45
2023-05-10T00:04:46.653Z,65.38
2023-05-10T00:07:13.833Z,65.57
2023-05-10T00:09:41.013Z,81.07
2023-05-10T00:12:08.241Z,73.13
2023-05-10T00:14:35.606Z,74.30
2023-05-10T00:17:02.942Z,79.18
2023-05-10T00:19:30.161Z,69.90
2023-05-10T00:21:57.435Z,58.53
2023-05-10T00:24:24.680Z,69.05
2023-05-10T00:26:51.901Z,83.32
2023-05-10T00:29:20.507Z,87.15
2023-05-10T00:31:48.556Z,95.83
2023-05-10T00:34:15.801Z,84.43
2023-05-10T00:36:42.980Z,90.68
2023-05-10T00:39:10.299Z,92.75
2023-05-10T00:41:37.515Z,93.40
2023-05-10T00:44:06.754Z,91.13
2023-05-10T00:46:34.118Z,76.05
2023-05-10T00:49:01.454Z,88.50
2023-05-10T00:51:28.740Z,85.95
2023-05-10T00:53:56.936Z,76.35
2023-05-10T00:56:25.425Z,72.73
2023-05-10T00:58:54.128Z,91.22
2023-05-10T01:01:21.507Z,75.90
2023-05-10T01:03:49.316Z,63.78
2023-05-10T01:06:16.614Z,74.53
2023-05-10T01:08:43.879Z,84.83
2023-05-10T01:11:11.055Z,90.28
2023-05-10T01:13:40.262Z,70.32
2023-05-10T01:16:08.114Z,59.95
2023-05-10T01:18:41.523Z,68.35
2023-05-10T01:21:24.045Z,74.53
2023-05-10T01:24:22.320Z,73.88
2023-05-10T01:27:27.081Z,78.00
2023-05-10T01:30:16.342Z,73.35
2023-05-10T01:33:00.736Z,73.57
2023-05-10T01:35:35.936Z,78.20
2023-05-10T01:38:33.586Z,90.30
2023-05-10T01:41:20.742Z,78.80
2023-05-10T01:44:01.933Z,89.97
2023-05-10T01:46:37.975Z,82.47
2023-05-10T01:49:11.641Z,76.33
2023-05-10T01:51:47.987Z,86.55
2023-05-10T01:54:20.358Z,85.13
2023-05-10T01:56:53.576Z,68.38
2023-05-10T01:59:25.894Z,64.82
2023-05-10T02:01:55.223Z,78.83
2023-05-10T02:04:24.583Z,86.55
2023-05-10T02:06:54.013Z,76.75
2023-05-10T02:09:22.187Z,72.78
2023-05-10T02:11:51.098Z,83.80
2023-05-10T02:14:19.957Z,96.10
2023-05-10T02:16:48.254Z,94.43
2023-05-10T02:19:16.460Z,82.95
2023-05-10T02:21:45.446Z,78.85
2023-05-10T02:24:13.837Z,97.10
2023-05-10T02:26:42.704Z,90.93
2023-05-10T02:29:10.734Z,103.28
2023-05-10T02:31:39.753Z,77.43
2023-05-10T02:34:08.338Z,83.82
2023-05-10T02:36:36.491Z,99.10
2023-05-10T02:39:10.547Z,101.95
2023-05-10T02:41:38.891Z,117.43
2023-05-10T02:44:08.792Z,101.55
2023-05-10T02:46:37.779Z,103.63
2023-05-10T02:49:05.015Z,96.38
2023-05-10T02:51:35.812Z,76.33
2023-05-10T02:54:11.254Z,79.95
2023-05-10T02:56:43.457Z,81.20
2023-05-10T02:59:10.689Z,92.28
2023-05-10T03:01:37.970Z,62.70
2023-05-10T03:04:05.410Z,61.85
2023-05-10T03:06:32.724Z,64.20
2023-05-10T03:09:00.390Z,67.20
2023-05-10T03:11:39.734Z,72.68
2023-05-10T03:14:22.479Z,69.57
2023-05-10T03:17:01.039Z,73.93
2023-05-10T03:19:33.237Z,75.57
2023-05-10T03:22:05.243Z,61.53
2023-05-10T03:24:37.686Z,62.83
2023-05-10T03:27:05.586Z,61.75
2023-05-10T03:29:33.638Z,68.37
2023-05-10T03:32:01.291Z,65.43
2023-05-10T03:34:32.377Z,66.35
2023-05-10T03:36:59.786Z,65.28
2023-05-10T03:39:30.266Z,61.53
2023-05-10T03:41:59.765Z,78.33
2023-05-10T03:44:27.020Z,86.78
2023-05-10T03:46:54.597Z,83.05
2023-05-10T03:49:23.399Z,79.13
2023-05-10T03:51:50.834Z,92.47
2023-05-10T03:54:18.094Z,90.90
2023-05-10T03:56:45.329Z,106.03
2023-05-10T03:59:12.590Z,93.10
2023-05-10T04:01:39.847Z,98.03
2023-05-10T04:04:07.503Z,66.03
2023-05-10T04:06:34.837Z,63.57
2023-05-10T04:09:04.966Z,61.25
2023-05-10T04:11:32.221Z,62.45
2023-05-10T04:13:59.408Z,59.78
2023-05-10T04:16:26.650Z,63.42
2023-05-10T04:18:54.700Z,63.70
2023-05-10T04:21:21.948Z,56.70
2023-05-10T04:23:49.107Z,62.38
2023-05-10T04:26:16.331Z,65.00
2023-05-10T04:28:43.526Z,56.28
2023-05-10T04:31:11.397Z,50.53
2023-05-10T04:33:38.710Z,57.28
2023-05-10T04:36:06.414Z,55.65
2023-05-10T04:38:33.697Z,53.15
2023-05-10T04:41:08.649Z,66.80
2023-05-10T04:43:36.349Z,63.40
2023-05-10T04:46:04.187Z,55.60
2023-05-10T04:48:31.506Z,55.00
2023-05-10T04:50:58.761Z,52.50
2023-05-10T04:53:25.971Z,61.75
2023-05-10T04:55:55.679Z,54.90
2023-05-10T04:58:22.899Z,56.20
2023-05-10T05:00:50.126Z,51.17
2023-05-10T05:03:17.366Z,58.67
2023-05-10T05:05:45.810Z,49.40
2023-05-10T05:08:13.670Z,51.63
2023-05-10T05:10:40.894Z,50.60
2023-05-10T05:13:08.256Z,41.65
2023-05-10T05:15:35.567Z,52.55
2023-05-10T05:18:02.828Z,63.58
2023-05-10T05:20:35.914Z,56.83
2023-05-10T05:23:03.250Z,55.22
2023-05-10T05:25:30.589Z,59.03
2023-05-10T05:27:57.765Z,56.33
2023-05-10T05:30:25.133Z,43.95
2023-05-10T05:32:52.333Z,44.40
2023-05-10T05:35:19.713Z,44.38
2023-05-10T05:37:47.014Z,40.72
2023-05-10T05:40:15.036Z,37.80
2023-05-10T05:42:42.413Z,38.95
2023-05-10T05:45:13.825Z,35.10
2023-05-10T05:47:41.455Z,34.67
2023-05-10T05:50:09.232Z,27.90
2023-05-10T05:52:36.977Z,31.20
2023-05-10T05:55:04.629Z,29.90
2023-05-10T05:57:31.950Z,34.05
2023-05-10T05:59:59.205Z,31.55
2023-05-10T06:02:26.494Z,34.92
2023-05-10T06:04:53.770Z,37.45
2023-05-10T06:07:21.239Z,33.50
2023-05-10T06:09:48.459Z,33.67
2023-05-10T06:12:15.699Z,24.88
2023-05-10T06:14:42.924Z,31.48
2023-05-10T06:17:10.111Z,30.25
2023-05-10T06:19:37.763Z,27.08
2023-05-10T06:22:05.013Z,32.43
2023-05-10T06:24:32.214Z,22.92
2023-05-10T06:27:01.060Z,23.10
2023-05-10T06:29:28.292Z,20.95
2023-05-10T06:31:55.661Z,21.17
2023-05-10T06:34:23.050Z,27.10
2023-05-10T06:36:50.354Z,23.13
2023-05-10T06:39:17.586Z,20.45
2023-05-10T06:41:44.831Z,23.38
2023-05-10T06:44:12.282Z,25.33
2023-05-10T06:46:39.546Z,30.65
2023-05-10T06:49:06.820Z,28.70
2023-05-10T06:51:34.426Z,33.50
2023-05-10T06:54:02.209Z,25.02
2023-05-10T06:56:29.412Z,31.35
2023-05-10T06:58:56.818Z,27.60
2023-05-10T07:01:24.350Z,25.30
2023-05-10T07:03:51.656Z,26.65
2023-05-10T07:06:32.332Z,22.50
2023-05-10T07:09:01.303Z,21.73
2023-05-10T07:11:28.590Z,15.90
2023-05-10T07:13:55.771Z,20.15
2023-05-10T07:16:23.123Z,19.42
2023-05-10T07:18:51.623Z,17.13
2023-05-10T07:21:18.831Z,19.58
2023-05-10T07:23:46.087Z,14.63
2023-05-10T07:26:13.340Z,14.15
2023-05-10T07:28:40.630Z,17.00
2023-05-10T07:31:07.867Z,17.25
2023-05-10T07:33:35.140Z,21.58
2023-05-10T07:36:02.425Z,22.60
2023-05-10T07:38:29.712Z,18.85
2023-05-10T07:40:56.864Z,22.63
2023-05-10T07:43:24.104Z,18.50
2023-05-10T07:45:52.739Z,15.93
2023-05-10T07:48:21.155Z,22.57
2023-05-10T07:50:48.362Z,23.58
2023-05-10T07:53:15.500Z,23.58
2023-05-10T07:55:42.647Z,24.52
2023-05-10T07:58:09.788Z,23.83
2023-05-10T08:00:40.205Z,19.38
2023-05-10T08:03:07.471Z,25.60
2023-05-10T08:05:35.791Z,23.05
2023-05-10T08:08:03.187Z,20.52
2023-05-10T08:10:30.458Z,23.42
2023-05-10T08:12:59.265Z,24.25
2023-05-10T08:15:26.559Z,25.70
2023-05-10T08:17:53.792Z,24.00
2023-05-10T08:20:21.528Z,24.80
2023-05-10T08:22:51.183Z,20.95
2023-05-10T08:25:19.272Z,19.98
2023-05-10T08:27:49.474Z,22.83
2023-05-10T08:30:16.735Z,18.95
2023-05-10T08:32:44.013Z,20.58
2023-05-10T08:35:11.207Z,17.65
2023-05-10T08:37:38.425Z,13.60
2023-05-10T08:40:06.379Z,13.35
2023-05-10T08:42:37.125Z,12.98
2023-05-10T08:45:05.552Z,11.32
2023-05-10T08:47:33.004Z,11.63
2023-05-10T08:50:01.001Z,9.50
2023-05-10T08:52:30.985Z,11.95
2023-05-10T08:54:58.220Z,8.93
2023-05-10T08:57:25.827Z,9.77
2023-05-10T08:59:53.203Z,9.00
2023-05-10T09:02:22.053Z,9.60
2023-05-10T09:04:50.147Z,9.40
2023-05-10T09:07:18.013Z,8.52
2023-05-10T09:09:46.807Z,10.85
2023-05-10T09:12:16.546Z,9.35
2023-05-10T09:14:45.471Z,10.20
2023-05-10T09:17:13.096Z,7.05
2023-05-10T09:19:40.255Z,7.97
2023-05-10T09:22:07.774Z,9.35
2023-05-10T09:24:35.084Z,7.93
2023-05-10T09:27:02.767Z,7.45
2023-05-10T09:29:43.757Z,7.28
2023-05-10T09:32:10.957Z,7.93
2023-05-10T09:34:40.948Z,8.55
2023-05-10T09:37:09.102Z,8.15
2023-05-10T09:39:37.956Z,6.50
2023-05-10T09:42:07.387Z,5.57
2023-05-10T09:44:34.992Z,7.18
2023-05-10T09:47:03.259Z,5.68
2023-05-10T09:49:30.990Z,5.72
2023-05-10T09:52:06.589Z,7.70
2023-05-10T09:54:34.938Z,7.22
2023-05-10T09:57:02.660Z,7.32
2023-05-10T09:59:30.171Z,7.72
2023-05-10T10:02:01.582Z,8.15
2023-05-10T10:04:30.160Z,5.65
2023-05-10T10:07:05.189Z,7.85
2023-05-10T10:09:33.219Z,8.38
2023-05-10T10:12:01.737Z,8.55
2023-05-10T10:14:30.198Z,8.45
2023-05-10T10:17:07.625Z,6.05
2023-05-10T10:19:36.776Z,6.38
2023-05-10T10:22:04.463Z,9.52
2023-05-10T10:24:31.723Z,6.70
2023-05-10T10:27:10.205Z,6.30
2023-05-10T10:29:50.786Z,7.53
2023-05-10T10:32:21.780Z,6.35
2023-05-10T10:34:49.235Z,6.85
2023-05-10T10:37:16.625Z,6.35
2023-05-10T10:39:43.860Z,6.45
2023-05-10T10:42:11.137Z,7.47
2023-05-10T10:44:39.401Z,5.63
2023-05-10T10:47:13.029Z,7.70
2023-05-10T10:50:04.265Z,7.15
2023-05-10T10:52:45.025Z,5.82
2023-05-10T10:55:19.200Z,6.97
2023-05-10T10:57:52.651Z,5.95
2023-05-10T11:00:24.220Z,6.82
2023-05-10T11:03:15.338Z,5.80
2023-05-10T11:05:49.090Z,5.65
2023-05-10T11:08:29.644Z,5.35
2023-05-10T11:10:59.637Z,4.82
2023-05-10T11:13:35.487Z,5.53
2023-05-10T11:16:16.459Z,8.65
2023-05-10T11:19:06.116Z,6.18
2023-05-10T11:21:34.814Z,7.55
2023-05-10T11:24:06.905Z,6.82
2023-05-10T11:26:38.142Z,5.40
2023-05-10T11:29:05.948Z,6.00
2023-05-10T11:31:36.404Z,5.90
2023-05-10T11:34:05.997Z,7.35
2023-05-10T11:36:37.472Z,5.03
2023-05-10T11:39:05.852Z,5.50
2023-05-10T11:41:33.112Z,5.32
2023-05-10T11:44:00.769Z,6.70
2023-05-10T11:46:29.411Z,7.00
2023-05-10T11:49:07.960Z,5.72
2023-05-10T11:51:40.363Z,8.57
2023-05-10T11:54:10.277Z,6.30
2023-05-10T11:56:39.229Z,5.75
2023-05-10T11:59:06.697Z,5.40
2023-05-10T12:01:34.673Z,6.93
2023-05-10T12:04:02.369Z,7.88
2023-05-10T12:06:34.850Z,7.80
2023-05-10T12:09:07.673Z,7.50
2023-05-10T12:11:43.560Z,9.25
2023-05-10T12:14:12.197Z,7.25
2023-05-10T12:16:39.454Z,7.10
2023-05-10T12:19:06.836Z,10.82
2023-05-10T12:21:34.346Z,9.32
2023-05-10T12:24:04.396Z,9.93
2023-05-10T12:26:32.048Z,8.50
2023-05-10T12:29:19.486Z,10.82
2023-05-10T12:32:00.972Z,9.45
2023-05-10T12:34:32.162Z,13.07
2023-05-10T12:36:59.870Z,9.10
2023-05-10T12:39:27.077Z,9.07
2023-05-10T12:41:54.238Z,10.52
2023-05-10T12:44:21.546Z,12.13
2023-05-10T12:46:48.815Z,11.93
2023-05-10T12:49:16.007Z,11.68
2023-05-10T12:51:43.189Z,10.70
2023-05-10T12:54:10.696Z,10.52
2023-05-10T12:56:38.043Z,8.82
2023-05-10T12:59:05.577Z,8.23
2023-05-10T13:01:32.804Z,8.02
2023-05-10T13:04:01.086Z,7.77
2023-05-10T13:06:29.427Z,9.27
2023-05-10T13:08:58.454Z,7.95
2023-05-10T13:11:28.780Z,9.90
2023-05-10T13:13:56.534Z,7.15
2023-05-10T13:16:23.874Z,8.93
2023-05-10T13:18:51.554Z,8.23
2023-05-10T13:21:19.017Z,7.30
2023-05-10T13:23:47.428Z,7.90
2023-05-10T13:26:14.720Z,5.97
2023-05-10T13:28:41.892Z,5.50
2023-05-10T13:31:09.206Z,5.35
2023-05-10T13:33:36.394Z,5.05
2023-05-10T13:36:03.824Z,5.90
2023-05-10T13:38:30.984Z,6.20
2023-05-10T13:40:58.139Z,6.67
2023-05-10T13:43:25.329Z,5.30
2023-05-10T13:45:53.145Z,5.15
2023-05-10T13:48:20.334Z,5.50
2023-05-10T13:50:47.930Z,6.70
2023-05-10T13:53:15.452Z,5.50
2023-05-10T13:55:42.876Z,5.10
2023-05-10T13:58:10.066Z,5.30
2023-05-10T14:00:37.471Z,6.97
2023-05-10T14:03:06.248Z,9.52
2023-05-10T14:05:33.623Z,6.90
2023-05-10T14:08:00.765Z,5.93
2023-05-10T14:10:27.932Z,10.00
2023-05-10T14:12:55.218Z,7.93
2023-05-10T14:15:22.448Z,8.95
2023-05-10T14:17:49.678Z,9.10
2023-05-10T14:20:16.970Z,6.50
2023-05-10T14:22:44.128Z,9.68
2023-05-10T14:25:12.397Z,8.63
2023-05-10T14:27:39.575Z,9.43
2023-05-10T14:30:07.671Z,8.60
2023-05-10T14:32:35.141Z,9.32
2023-05-10T14:35:02.498Z,8.25
2023-05-10T14:37:29.690Z,9.90
2023-05-10T14:39:56.850Z,8.52
2023-05-10T14:42:24.037Z,8.53
2023-05-10T14:44:51.394Z,7.32
2023-05-10T14:47:18.619Z,6.50
2023-05-10T14:49:45.788Z,7.95
2023-05-10T14:52:13.202Z,7.25
2023-05-10T14:54:41.202Z,9.03
2023-05-10T14:57:08.392Z,6.43
2023-05-10T14:59:35.764Z,5.38
2023-05-10T15:02:05.134Z,6.90
2023-05-10T15:04:33.134Z,6.15
2023-05-10T15:07:01.381Z,4.45
2023-05-10T15:09:28.664Z,5.43
2023-05-10T15:11:56.525Z,5.57
2023-05-10T15:14:24.313Z,4.97
2023-05-10T15:16:51.547Z,4.15
2023-05-10T15:19:18.733Z,5.87
2023-05-10T15:21:46.264Z,5.80
2023-05-10T15:24:13.486Z,7.32
2023-05-10T15:26:41.362Z,6.03
2023-05-10T15:29:08.753Z,8.27
2023-05-10T15:31:36.770Z,5.90
2023-05-10T15:34:04.054Z,5.65
2023-05-10T15:36:33.023Z,6.50
2023-05-10T15:39:00.174Z,6.00
2023-05-10T15:41:27.727Z,7.60
2023-05-10T15:43:55.020Z,6.20
2023-05-10T15:46:22.668Z,5.43
2023-05-10T15:48:49.950Z,5.65
2023-05-10T15:51:17.311Z,5.50
2023-05-10T15:53:56.545Z,6.70
2023-05-10T15:56:28.385Z,6.40
2023-05-10T15:58:55.748Z,5.05
2023-05-10T16:01:23.050Z,7.10
2023-05-10T16:03:50.372Z,5.22
2023-05-10T16:06:17.607Z,7.22
2023-05-10T16:08:44.815Z,7.20
2023-05-10T16:11:12.131Z,7.22
2023-05-10T16:13:39.349Z,9.55
2023-05-10T16:16:08.894Z,6.20
2023-05-10T16:18:36.482Z,10.18
2023-05-10T16:21:04.000Z,8.98
2023-05-10T16:23:31.195Z,5.80
2023-05-10T16:25:58.408Z,7.32
2023-05-10T16:28:25.789Z,5.38
2023-05-10T16:30:53.077Z,6.28
2023-05-10T16:33:20.763Z,5.28
2023-05-10T16:35:47.960Z,7.15
2023-05-10T16:38:15.207Z,4.95
2023-05-10T16:40:42.463Z,6.63
2023-05-10T16:43:09.688Z,8.20
2023-05-10T16:45:36.852Z,7.05
2023-05-10T16:48:04.143Z,6.93
2023-05-10T16:50:31.349Z,6.13
2023-05-10T16:52:58.692Z,5.30
2023-05-10T16:55:26.558Z,5.10
2023-05-10T16:57:59.641Z,6.10
2023-05-10T17:00:27.300Z,5.25
2023-05-10T17:02:54.934Z,7.45
2023-05-10T17:05:22.875Z,7.80
2023-05-10T17:07:50.519Z,6.75
2023-05-10T17:10:17.953Z,8.88
2023-05-10T17:12:45.756Z,8.35
2023-05-10T17:15:13.259Z,10.20
2023-05-10T17:17:40.575Z,8.40
2023-05-10T17:20:08.545Z,10.77
2023-05-10T17:22:35.896Z,9.70
2023-05-10T17:25:04.175Z,8.02
2023-05-10T17:27:31.640Z,9.15
2023-05-10T17:29:59.426Z,10.57
2023-05-10T17:32:26.725Z,13.82
2023-05-10T17:34:53.929Z,12.50
2023-05-10T17:37:21.142Z,15.93
2023-05-10T17:39:48.338Z,11.57
2023-05-10T17:42:17.539Z,11.43
2023-05-10T17:44:44.741Z,13.35
2023-05-10T17:47:12.006Z,13.07
2023-05-10T17:49:39.883Z,14.52
2023-05-10T17:52:09.377Z,15.80
2023-05-10T17:54:36.611Z,12.63
2023-05-10T17:57:03.950Z,12.95
2023-05-10T17:59:31.094Z,14.55
2023-05-10T18:01:58.286Z,11.68
2023-05-10T18:04:27.961Z,11.15
2023-05-10T18:07:01.134Z,11.77
2023-05-10T18:09:29.116Z,11.45
2023-05-10T18:11:56.514Z,16.35
2023-05-10T18:14:36.469Z,13.50
2023-05-10T18:17:06.908Z,11.15
2023-05-10T18:19:34.288Z,11.43
2023-05-10T18:22:01.558Z,12.95
2023-05-10T18:24:38.236Z,13.02
2023-05-10T18:27:07.903Z,13.95
2023-05-10T18:29:36.098Z,13.35
2023-05-10T18:32:04.602Z,13.35
2023-05-10T18:34:34.906Z,14.07
2023-05-10T18:37:07.093Z,15.93
2023-05-10T18:39:34.332Z,16.08
2023-05-10T18:42:01.803Z,16.80
2023-05-10T18:44:29.193Z,16.35
2023-05-10T18:46:56.679Z,13.32
2023-05-10T18:49:24.058Z,12.95
2023-05-10T18:51:51.350Z,16.45
2023-05-10T18:54:18.643Z,11.90
2023-05-10T18:56:46.311Z,12.55
2023-05-10T18:59:13.887Z,14.77
2023-05-10T19:01:41.715Z,14.25
2023-05-10T19:04:09.027Z,14.55
2023-05-10T19:06:36.530Z,15.48
2023-05-10T19:09:03.898Z,20.45
2023-05-10T19:11:33.927Z,18.45
2023-05-10T19:14:02.066Z,21.02
2023-05-10T19:16:30.573Z,23.50
2023-05-10T19:18:58.078Z,20.77
2023-05-10T19:21:25.410Z,23.45
2023-05-10T19:23:53.590Z,25.27
2023-05-10T19:26:21.740Z,22.52
2023-05-10T19:28:51.898Z,25.92
2023-05-10T19:31:19.898Z,23.50
2023-05-10T19:33:47.254Z,26.55
2023-05-10T19:36:14.504Z,22.92
2023-05-10T19:38:41.884Z,29.02
2023-05-10T19:41:09.134Z,24.42
2023-05-10T19:43:39.663Z,21.23
2023-05-10T19:46:06.910Z,24.40
2023-05-10T19:48:34.128Z,19.02
2023-05-10T19:51:03.027Z,21.45
2023-05-10T19:53:30.642Z,18.75
2023-05-10T19:56:03.846Z,19.05
2023-05-10T19:58:31.377Z,19.73
2023-05-10T20:00:58.645Z,23.77
2023-05-10T20:03:25.948Z,20.88
2023-05-10T20:05:53.351Z,21.67
2023-05-10T20:08:20.634Z,22.02
2023-05-10T20:10:47.947Z,22.30
2023-05-10T20:13:15.180Z,23.55
2023-05-10T20:15:42.365Z,26.25
2023-05-10T20:18:09.785Z,23.25
2023-05-10T20:20:37.081Z,21.98
2023-05-10T20:23:04.293Z,23.55
2023-05-10T20:25:31.674Z,25.00
2023-05-10T20:27:58.873Z,23.25
2023-05-10T20:30:26.284Z,30.33
2023-05-10T20:32:53.583Z,23.40
2023-05-10T20:35:20.936Z,22.15
2023-05-10T20:37:48.421Z,25.23
2023-05-10T20:40:15.808Z,23.27
2023-05-10T20:42:43.162Z,28.05
2023-05-10T20:45:10.894Z,26.20
2023-05-10T20:47:38.193Z,24.48
2023-05-10T20:50:05.981Z,25.55
2023-05-10T20:52:33.168Z,26.50
2023-05-10T20:55:00.334Z,29.05
2023-05-10T20:57:27.539Z,25.35
2023-05-10T20:59:54.763Z,24.27
2023-05-10T21:02:21.992Z,24.83
2023-05-10T21:04:49.199Z,26.92
2023-05-10T21:07:16.713Z,25.40
2023-05-10T21:09:43.875Z,23.73
2023-05-10T21:12:11.283Z,26.17
2023-05-10T21:14:38.476Z,26.70
2023-05-10T21:17:05.686Z,28.63
2023-05-10T21:19:32.893Z,28.55
2023-05-10T21:22:00.098Z,30.52
2023-05-10T21:24:27.323Z,29.38
2023-05-10T21:26:54.549Z,31.05
2023-05-10T21:29:21.811Z,37.47
2023-05-10T21:31:49.061Z,32.17
2023-05-10T21:34:17.873Z,32.35
2023-05-10T21:36:45.115Z,34.20
2023-05-10T21:39:12.353Z,38.35
2023-05-10T21:41:39.529Z,36.60
2023-05-10T21:44:06.757Z,37.00
2023-05-10T21:46:33.913Z,29.90
2023-05-10T21:49:01.081Z,22.08
2023-05-10T21:51:29.171Z,23.73
2023-05-10T21:53:56.516Z,19.38
2023-05-10T21:56:23.734Z,17.83
2023-05-10T21:58:50.948Z,20.77
2023-05-10T22:01:18.329Z,20.15
2023-05-10T22:03:45.695Z,20.50
2023-05-10T22:06:12.965Z,16.63
2023-05-10T22:08:40.274Z,16.58
2023-05-10T22:11:07.470Z,16.08
2023-05-10T22:13:34.665Z,16.90
2023-05-10T22:16:01.984Z,17.85
2023-05-10T22:18:29.495Z,14.60
2023-05-10T22:20:56.733Z,15.75
2023-05-10T22:23:23.921Z,18.15
2023-05-10T22:25:51.156Z,17.90
2023-05-10T22:28:18.376Z,18.63
2023-05-10T22:30:45.722Z,19.80
2023-05-10T22:33:12.988Z,18.88
2023-05-10T22:35:40.279Z,21.25
2023-05-10T22:38:07.515Z,17.92
2023-05-10T22:40:34.704Z,16.92
2023-05-10T22:43:01.988Z,17.85
2023-05-10T22:45:29.211Z,19.98
2023-05-10T22:47:56.613Z,18.83
2023-05-10T22:50:24.654Z,20.77
2023-05-10T22:52:51.929Z,23.75
2023-05-10T22:55:19.345Z,19.98
2023-05-10T22:57:46.615Z,22.35
2023-05-10T23:00:14.579Z,20.00
2023-05-10T23:02:41.940Z,20.65
2023-05-10T23:05:09.837Z,22.35
2023-05-10T23:07:37.179Z,24.33
2023-05-10T23:10:04.740Z,22.00
2023-05-10T23:12:32.110Z,22.23
2023-05-10T23:14:59.632Z,21.73
2023-05-10T23:17:26.985Z,25.73
2023-05-10T23:19:54.249Z,26.27
2023-05-10T23:22:21.841Z,24.13
2023-05-10T23:24:49.135Z,24.00
2023-05-10T23:27:16.549Z,25.02
2023-05-10T23:29:43.805Z,25.27
2023-05-10T23:32:11.483Z,25.10
2023-05-10T23:34:38.744Z,24.25
2023-05-10T23:37:06.188Z,27.45
2023-05-10T23:39:33.937Z,26.50
2023-05-10T23:42:01.473Z,24.95
2023-05-10T23:44:28.695Z,26.52
2023-05-10T23:46:56.073Z,25.33
2023-05-10T23:49:23.322Z,27.95
2023-05-10T23:51:50.688Z,26.38
2023-05-10T23:54:18.117Z,28.10
2023-05-10T23:56:45.390Z,30.52
2023-05-10T23:59:14.721Z,29.02
